This is the latest recevied weather packets stored in our database for station/object EW1917. If no packets are shown the sender has not sent any weather packets the latest 10 day(s).
| Time | Temp. | Humidity | Pressure | Rain* | Wind** | Luminosity | Snow |
|---|---|---|---|---|---|---|---|
| 1778355174 | 17.78° C | 78% | 1013.6 hPa | 0 mm | - | 0 W/m² | - |
| 1778353073 | 18.33° C | 74% | 1012.9 hPa | 0 mm | - | 0 W/m² | - |
| 1778352174 | 18.89° C | 75% | 1012.6 hPa | 0 mm | - | 0 W/m² | - |
| 1778350374 | 20° C | 73% | 1012.3 hPa | 0 mm | - | 11 W/m² | - |
| 1778346473 | 22.22° C | 67% | 1012.3 hPa | 0 mm | - | 98 W/m² | - |
| 1778346180 | 22.22° C | 67% | 1012.3 hPa | 0 mm | - | 105 W/m² | - |
| 1778345271 | 22.22° C | 64% | 1012.2 hPa | 0 mm | - | 116 W/m² | - |
| 1778343174 | 23.33° C | 61% | 1012.4 hPa | 0 mm | - | 193 W/m² | - |
| 1778341074 | 23.33° C | 49% | 1012.6 hPa | 0 mm | - | 454 W/m² | - |
| 1778340775 | 23.33° C | 49% | 1012.6 hPa | 0 mm | - | 385 W/m² | - |
| 1778339577 | 23.89° C | 54% | 1012.8 hPa | 0 mm | - | 135 W/m² | - |
| 1778338079 | 24.44° C | 48% | 1012.8 hPa | 0 mm | - | 132 W/m² | - |
| 1778336872 | 24.44° C | 45% | 1013 hPa | 0 mm | - | 350 W/m² | - |
| 1778335374 | 24.44° C | 43% | 1013.2 hPa | 0 mm | - | 594 W/m² | - |
| 1778334777 | 24.44° C | 41% | 1013.3 hPa | 0 mm | - | 696 W/m² | - |
| 1778333571 | 24.44° C | 45% | 1013.3 hPa | 0 mm | - | 719 W/m² | - |
| 1778331471 | 23.89° C | 49% | 1013.5 hPa | 0 mm | - | 809 W/m² | - |
| 1778331177 | 23.89° C | 48% | 1013.5 hPa | 0 mm | - | 758 W/m² | - |
| 1778330874 | 23.89° C | 47% | 1013.5 hPa | 0 mm | - | 796 W/m² | - |
| 1778330571 | 23.89° C | 45% | 1013.5 hPa | 0 mm | - | 831 W/m² | - |
| 1778326977 | 23.33° C | 43% | 1013.9 hPa | 0 mm | - | 779 W/m² | - |
| 1778326677 | 23.33° C | 43% | 1013.9 hPa | 0 mm | - | 881 W/m² | - |
| 1778325774 | 22.78° C | 43% | 1013.9 hPa | 0 mm | - | 803 W/m² | - |
| 1778325474 | 22.78° C | 43% | 1013.9 hPa | 0 mm | - | 833 W/m² | - |
| 1778325177 | 22.78° C | 42% | 1013.9 hPa | 0 mm | - | 721 W/m² | - |
* Rain latest hour (hover to see other rain measurements)
** Current wind speed in m/s (hover to see current wind gust speed)